sensor_id;sensor_type;location;lat;lon;timestamp;P1;durP1;ratioP1;P2;durP2;ratioP2
77518;SDS011;66629;47.346;19.038;2023-02-10T00:00:23;198.60;;;84.95;;
77518;SDS011;66629;47.346;19.038;2023-02-10T00:02:48;186.80;;;78.30;;
77518;SDS011;66629;47.346;19.038;2023-02-10T00:05:14;187.63;;;78.18;;
77518;SDS011;66629;47.346;19.038;2023-02-10T00:07:39;187.18;;;79.13;;
77518;SDS011;66629;47.346;19.038;2023-02-10T00:10:05;197.52;;;79.65;;
77518;SDS011;66629;47.346;19.038;2023-02-10T00:12:31;184.95;;;77.35;;
77518;SDS011;66629;47.346;19.038;2023-02-10T00:14:56;176.13;;;76.30;;
77518;SDS011;66629;47.346;19.038;2023-02-10T00:17:21;165.02;;;76.28;;
77518;SDS011;66629;47.346;19.038;2023-02-10T00:19:48;157.45;;;73.25;;
77518;SDS011;66629;47.346;19.038;2023-02-10T00:22:13;154.30;;;68.88;;
77518;SDS011;66629;47.346;19.038;2023-02-10T00:24:39;170.20;;;71.63;;
77518;SDS011;66629;47.346;19.038;2023-02-10T00:27:04;151.43;;;69.10;;
77518;SDS011;66629;47.346;19.038;2023-02-10T00:29:29;165.13;;;69.35;;
77518;SDS011;66629;47.346;19.038;2023-02-10T00:31:56;156.32;;;69.05;;
77518;SDS011;66629;47.346;19.038;2023-02-10T00:34:22;164.48;;;72.03;;
77518;SDS011;66629;47.346;19.038;2023-02-10T00:36:48;161.50;;;71.65;;
77518;SDS011;66629;47.346;19.038;2023-02-10T00:39:15;162.65;;;66.90;;
77518;SDS011;66629;47.346;19.038;2023-02-10T00:41:41;158.48;;;72.30;;
77518;SDS011;66629;47.346;19.038;2023-02-10T00:44:07;172.23;;;75.88;;
77518;SDS011;66629;47.346;19.038;2023-02-10T00:46:33;162.77;;;73.18;;
77518;SDS011;66629;47.346;19.038;2023-02-10T00:48:58;168.20;;;70.47;;
77518;SDS011;66629;47.346;19.038;2023-02-10T00:51:23;167.18;;;71.65;;
77518;SDS011;66629;47.346;19.038;2023-02-10T00:53:49;171.43;;;73.25;;
77518;SDS011;66629;47.346;19.038;2023-02-10T00:56:16;160.38;;;69.57;;
77518;SDS011;66629;47.346;19.038;2023-02-10T00:58:42;157.30;;;66.85;;
77518;SDS011;66629;47.346;19.038;2023-02-10T01:01:08;177.25;;;76.78;;
77518;SDS011;66629;47.346;19.038;2023-02-10T01:03:34;161.82;;;70.85;;
77518;SDS011;66629;47.346;19.038;2023-02-10T01:05:59;173.25;;;75.00;;
77518;SDS011;66629;47.346;19.038;2023-02-10T01:08:25;172.70;;;72.90;;
77518;SDS011;66629;47.346;19.038;2023-02-10T01:11:06;159.77;;;72.35;;
77518;SDS011;66629;47.346;19.038;2023-02-10T01:13:34;154.07;;;68.57;;
77518;SDS011;66629;47.346;19.038;2023-02-10T01:16:03;146.80;;;68.07;;
77518;SDS011;66629;47.346;19.038;2023-02-10T01:18:30;157.00;;;69.93;;
77518;SDS011;66629;47.346;19.038;2023-02-10T01:20:56;152.40;;;68.82;;
77518;SDS011;66629;47.346;19.038;2023-02-10T01:23:21;154.43;;;70.53;;
77518;SDS011;66629;47.346;19.038;2023-02-10T01:25:47;168.75;;;72.80;;
77518;SDS011;66629;47.346;19.038;2023-02-10T01:28:12;152.38;;;68.22;;
77518;SDS011;66629;47.346;19.038;2023-02-10T01:30:38;153.82;;;68.82;;
77518;SDS011;66629;47.346;19.038;2023-02-10T01:33:03;158.48;;;70.93;;
77518;SDS011;66629;47.346;19.038;2023-02-10T01:35:29;157.43;;;72.05;;
77518;SDS011;66629;47.346;19.038;2023-02-10T01:37:55;155.07;;;65.57;;
77518;SDS011;66629;47.346;19.038;2023-02-10T01:40:21;166.13;;;71.40;;
77518;SDS011;66629;47.346;19.038;2023-02-10T01:42:48;155.43;;;68.32;;
77518;SDS011;66629;47.346;19.038;2023-02-10T01:45:18;157.85;;;69.90;;
77518;SDS011;66629;47.346;19.038;2023-02-10T01:47:45;150.00;;;69.85;;
77518;SDS011;66629;47.346;19.038;2023-02-10T01:50:13;150.95;;;68.00;;
77518;SDS011;66629;47.346;19.038;2023-02-10T01:52:41;155.18;;;72.55;;
77518;SDS011;66629;47.346;19.038;2023-02-10T01:55:09;148.82;;;68.22;;
77518;SDS011;66629;47.346;19.038;2023-02-10T01:57:37;158.32;;;73.07;;
77518;SDS011;66629;47.346;19.038;2023-02-10T02:00:06;150.48;;;68.55;;
77518;SDS011;66629;47.346;19.038;2023-02-10T02:02:32;154.57;;;69.55;;
77518;SDS011;66629;47.346;19.038;2023-02-10T02:05:00;149.13;;;70.85;;
77518;SDS011;66629;47.346;19.038;2023-02-10T02:07:32;161.55;;;68.50;;
77518;SDS011;66629;47.346;19.038;2023-02-10T02:10:01;161.57;;;71.72;;
77518;SDS011;66629;47.346;19.038;2023-02-10T02:12:41;161.60;;;70.57;;
77518;SDS011;66629;47.346;19.038;2023-02-10T02:15:27;164.77;;;70.65;;
77518;SDS011;66629;47.346;19.038;2023-02-10T02:26:25;156.35;;;69.60;;
77518;SDS011;66629;47.346;19.038;2023-02-10T02:31:57;155.02;;;67.25;;
77518;SDS011;66629;47.346;19.038;2023-02-10T02:34:40;153.68;;;71.13;;
77518;SDS011;66629;47.346;19.038;2023-02-10T02:37:33;170.57;;;76.22;;
77518;SDS011;66629;47.346;19.038;2023-02-10T02:40:02;151.13;;;68.32;;
77518;SDS011;66629;47.346;19.038;2023-02-10T02:42:29;178.00;;;74.22;;
77518;SDS011;66629;47.346;19.038;2023-02-10T02:45:01;168.27;;;74.03;;
77518;SDS011;66629;47.346;19.038;2023-02-10T02:47:59;148.68;;;65.55;;
77518;SDS011;66629;47.346;19.038;2023-02-10T03:00:53;167.95;;;70.00;;
77518;SDS011;66629;47.346;19.038;2023-02-10T03:03:22;155.40;;;70.20;;
77518;SDS011;66629;47.346;19.038;2023-02-10T03:05:47;169.93;;;74.95;;
77518;SDS011;66629;47.346;19.038;2023-02-10T03:08:13;168.10;;;71.82;;
77518;SDS011;66629;47.346;19.038;2023-02-10T03:10:38;155.07;;;70.07;;
77518;SDS011;66629;47.346;19.038;2023-02-10T03:13:04;133.82;;;62.83;;
77518;SDS011;66629;47.346;19.038;2023-02-10T03:15:29;168.93;;;73.28;;
77518;SDS011;66629;47.346;19.038;2023-02-10T03:17:55;177.98;;;72.65;;
77518;SDS011;66629;47.346;19.038;2023-02-10T03:20:21;154.38;;;70.93;;
77518;SDS011;66629;47.346;19.038;2023-02-10T03:22:47;148.02;;;70.30;;
77518;SDS011;66629;47.346;19.038;2023-02-10T03:25:12;164.43;;;73.65;;
77518;SDS011;66629;47.346;19.038;2023-02-10T03:27:38;155.00;;;68.72;;
77518;SDS011;66629;47.346;19.038;2023-02-10T03:30:03;153.75;;;70.35;;
77518;SDS011;66629;47.346;19.038;2023-02-10T03:32:30;162.00;;;68.35;;
77518;SDS011;66629;47.346;19.038;2023-02-10T03:34:55;143.02;;;66.82;;
77518;SDS011;66629;47.346;19.038;2023-02-10T03:37:20;143.52;;;66.65;;
77518;SDS011;66629;47.346;19.038;2023-02-10T03:39:46;153.13;;;66.72;;
77518;SDS011;66629;47.346;19.038;2023-02-10T03:42:11;142.32;;;67.65;;
77518;SDS011;66629;47.346;19.038;2023-02-10T03:44:37;151.65;;;69.53;;
77518;SDS011;66629;47.346;19.038;2023-02-10T03:47:02;150.45;;;68.80;;
77518;SDS011;66629;47.346;19.038;2023-02-10T03:49:28;148.40;;;66.40;;
77518;SDS011;66629;47.346;19.038;2023-02-10T03:51:53;145.48;;;67.47;;
77518;SDS011;66629;47.346;19.038;2023-02-10T03:54:19;136.85;;;63.45;;
77518;SDS011;66629;47.346;19.038;2023-02-10T03:56:44;142.20;;;65.35;;
77518;SDS011;66629;47.346;19.038;2023-02-10T03:59:09;142.90;;;64.18;;
77518;SDS011;66629;47.346;19.038;2023-02-10T04:01:35;159.35;;;72.40;;
77518;SDS011;66629;47.346;19.038;2023-02-10T04:04:00;145.15;;;65.47;;
77518;SDS011;66629;47.346;19.038;2023-02-10T04:06:26;148.52;;;61.80;;
77518;SDS011;66629;47.346;19.038;2023-02-10T04:08:51;152.43;;;68.78;;
77518;SDS011;66629;47.346;19.038;2023-02-10T04:11:17;140.65;;;62.92;;
77518;SDS011;66629;47.346;19.038;2023-02-10T04:13:44;137.48;;;63.88;;
77518;SDS011;66629;47.346;19.038;2023-02-10T04:16:10;148.57;;;63.42;;
77518;SDS011;66629;47.346;19.038;2023-02-10T04:18:41;141.52;;;60.58;;
77518;SDS011;66629;47.346;19.038;2023-02-10T04:21:08;124.10;;;55.65;;
77518;SDS011;66629;47.346;19.038;2023-02-10T04:23:35;137.88;;;61.20;;
77518;SDS011;66629;47.346;19.038;2023-02-10T04:26:01;139.63;;;63.53;;
77518;SDS011;66629;47.346;19.038;2023-02-10T04:28:27;134.27;;;62.47;;
77518;SDS011;66629;47.346;19.038;2023-02-10T04:30:52;133.65;;;59.58;;
77518;SDS011;66629;47.346;19.038;2023-02-10T04:33:18;146.90;;;61.67;;
77518;SDS011;66629;47.346;19.038;2023-02-10T04:35:46;127.40;;;61.15;;
77518;SDS011;66629;47.346;19.038;2023-02-10T04:38:12;131.32;;;59.75;;
77518;SDS011;66629;47.346;19.038;2023-02-10T04:40:38;134.75;;;61.97;;
77518;SDS011;66629;47.346;19.038;2023-02-10T04:43:04;130.68;;;59.70;;
77518;SDS011;66629;47.346;19.038;2023-02-10T04:45:30;120.78;;;60.38;;
77518;SDS011;66629;47.346;19.038;2023-02-10T04:47:55;135.73;;;62.90;;
77518;SDS011;66629;47.346;19.038;2023-02-10T04:50:21;134.52;;;62.95;;
77518;SDS011;66629;47.346;19.038;2023-02-10T04:52:46;141.32;;;67.38;;
77518;SDS011;66629;47.346;19.038;2023-02-10T04:55:11;154.68;;;72.35;;
77518;SDS011;66629;47.346;19.038;2023-02-10T04:57:37;161.05;;;74.60;;
77518;SDS011;66629;47.346;19.038;2023-02-10T05:00:03;144.35;;;66.68;;
77518;SDS011;66629;47.346;19.038;2023-02-10T05:02:29;148.20;;;68.13;;
77518;SDS011;66629;47.346;19.038;2023-02-10T05:04:55;149.15;;;66.45;;
77518;SDS011;66629;47.346;19.038;2023-02-10T05:07:20;137.20;;;65.20;;
77518;SDS011;66629;47.346;19.038;2023-02-10T05:09:47;142.98;;;63.58;;
77518;SDS011;66629;47.346;19.038;2023-02-10T05:12:12;143.60;;;64.15;;
77518;SDS011;66629;47.346;19.038;2023-02-10T05:14:38;145.13;;;64.30;;
77518;SDS011;66629;47.346;19.038;2023-02-10T05:17:03;144.40;;;66.75;;
77518;SDS011;66629;47.346;19.038;2023-02-10T05:19:28;135.85;;;63.42;;
77518;SDS011;66629;47.346;19.038;2023-02-10T05:21:54;142.70;;;65.43;;
77518;SDS011;66629;47.346;19.038;2023-02-10T05:24:19;149.55;;;71.25;;
77518;SDS011;66629;47.346;19.038;2023-02-10T05:26:45;135.35;;;62.08;;
77518;SDS011;66629;47.346;19.038;2023-02-10T05:29:10;147.95;;;65.40;;
77518;SDS011;66629;47.346;19.038;2023-02-10T05:31:36;155.98;;;68.05;;
77518;SDS011;66629;47.346;19.038;2023-02-10T05:34:01;137.80;;;63.85;;
77518;SDS011;66629;47.346;19.038;2023-02-10T05:36:26;140.05;;;60.42;;
77518;SDS011;66629;47.346;19.038;2023-02-10T05:38:52;136.98;;;59.60;;
77518;SDS011;66629;47.346;19.038;2023-02-10T05:41:36;142.18;;;60.70;;
77518;SDS011;66629;47.346;19.038;2023-02-10T05:44:01;120.35;;;54.50;;
77518;SDS011;66629;47.346;19.038;2023-02-10T05:46:27;140.63;;;63.13;;
77518;SDS011;66629;47.346;19.038;2023-02-10T05:48:52;152.40;;;65.30;;
77518;SDS011;66629;47.346;19.038;2023-02-10T05:51:18;146.15;;;65.10;;
77518;SDS011;66629;47.346;19.038;2023-02-10T05:53:43;120.55;;;58.92;;
77518;SDS011;66629;47.346;19.038;2023-02-10T05:56:08;129.00;;;59.75;;
77518;SDS011;66629;47.346;19.038;2023-02-10T05:58:34;129.93;;;58.58;;
77518;SDS011;66629;47.346;19.038;2023-02-10T06:00:59;129.50;;;59.33;;
77518;SDS011;66629;47.346;19.038;2023-02-10T06:03:25;129.80;;;55.08;;
77518;SDS011;66629;47.346;19.038;2023-02-10T06:05:50;132.15;;;60.58;;
77518;SDS011;66629;47.346;19.038;2023-02-10T06:08:16;126.63;;;60.00;;
77518;SDS011;66629;47.346;19.038;2023-02-10T06:10:42;127.15;;;57.80;;
77518;SDS011;66629;47.346;19.038;2023-02-10T06:13:07;130.27;;;59.55;;
77518;SDS011;66629;47.346;19.038;2023-02-10T06:15:33;127.03;;;59.78;;
77518;SDS011;66629;47.346;19.038;2023-02-10T06:17:58;120.57;;;61.40;;
77518;SDS011;66629;47.346;19.038;2023-02-10T06:20:23;148.70;;;66.55;;
77518;SDS011;66629;47.346;19.038;2023-02-10T06:22:49;148.82;;;66.38;;
77518;SDS011;66629;47.346;19.038;2023-02-10T06:25:15;133.43;;;60.78;;
77518;SDS011;66629;47.346;19.038;2023-02-10T06:27:41;145.85;;;61.08;;
77518;SDS011;66629;47.346;19.038;2023-02-10T06:30:06;135.73;;;60.58;;
77518;SDS011;66629;47.346;19.038;2023-02-10T06:32:33;132.73;;;60.58;;
77518;SDS011;66629;47.346;19.038;2023-02-10T06:34:58;139.98;;;61.05;;
77518;SDS011;66629;47.346;19.038;2023-02-10T06:37:23;132.15;;;60.92;;
77518;SDS011;66629;47.346;19.038;2023-02-10T06:39:49;140.20;;;63.28;;
77518;SDS011;66629;47.346;19.038;2023-02-10T06:42:15;121.45;;;57.78;;
77518;SDS011;66629;47.346;19.038;2023-02-10T06:44:40;131.07;;;63.58;;
77518;SDS011;66629;47.346;19.038;2023-02-10T06:47:05;138.93;;;63.72;;
77518;SDS011;66629;47.346;19.038;2023-02-10T06:49:31;142.25;;;64.68;;
77518;SDS011;66629;47.346;19.038;2023-02-10T06:51:56;142.68;;;65.05;;
77518;SDS011;66629;47.346;19.038;2023-02-10T06:54:22;137.90;;;63.35;;
77518;SDS011;66629;47.346;19.038;2023-02-10T06:56:47;131.23;;;62.53;;
77518;SDS011;66629;47.346;19.038;2023-02-10T06:59:13;148.65;;;65.63;;
77518;SDS011;66629;47.346;19.038;2023-02-10T07:01:38;136.18;;;61.85;;
77518;SDS011;66629;47.346;19.038;2023-02-10T07:04:04;125.55;;;61.80;;
77518;SDS011;66629;47.346;19.038;2023-02-10T07:06:30;127.85;;;63.38;;
77518;SDS011;66629;47.346;19.038;2023-02-10T07:08:55;151.75;;;75.28;;
77518;SDS011;66629;47.346;19.038;2023-02-10T07:11:20;198.63;;;93.75;;
77518;SDS011;66629;47.346;19.038;2023-02-10T07:13:46;200.55;;;90.45;;
77518;SDS011;66629;47.346;19.038;2023-02-10T07:16:11;163.93;;;78.30;;
77518;SDS011;66629;47.346;19.038;2023-02-10T07:18:40;144.88;;;68.38;;
77518;SDS011;66629;47.346;19.038;2023-02-10T07:21:05;136.45;;;68.88;;
77518;SDS011;66629;47.346;19.038;2023-02-10T07:23:31;139.93;;;68.18;;
77518;SDS011;66629;47.346;19.038;2023-02-10T07:25:56;144.80;;;71.00;;
77518;SDS011;66629;47.346;19.038;2023-02-10T07:28:22;137.95;;;67.55;;
77518;SDS011;66629;47.346;19.038;2023-02-10T07:30:47;140.10;;;68.53;;
77518;SDS011;66629;47.346;19.038;2023-02-10T07:33:12;134.27;;;69.05;;
77518;SDS011;66629;47.346;19.038;2023-02-10T07:35:38;139.45;;;68.43;;
77518;SDS011;66629;47.346;19.038;2023-02-10T07:38:03;129.48;;;66.85;;
77518;SDS011;66629;47.346;19.038;2023-02-10T07:40:29;129.60;;;63.75;;
77518;SDS011;66629;47.346;19.038;2023-02-10T07:42:55;117.95;;;61.95;;
77518;SDS011;66629;47.346;19.038;2023-02-10T07:45:21;129.45;;;66.45;;
77518;SDS011;66629;47.346;19.038;2023-02-10T07:47:47;133.20;;;71.82;;
77518;SDS011;66629;47.346;19.038;2023-02-10T07:50:12;130.38;;;66.55;;
77518;SDS011;66629;47.346;19.038;2023-02-10T07:52:38;118.13;;;58.47;;
77518;SDS011;66629;47.346;19.038;2023-02-10T07:55:06;88.47;;;51.05;;
77518;SDS011;66629;47.346;19.038;2023-02-10T07:57:31;90.75;;;48.30;;
77518;SDS011;66629;47.346;19.038;2023-02-10T07:59:57;94.32;;;50.28;;
77518;SDS011;66629;47.346;19.038;2023-02-10T08:02:22;81.88;;;41.47;;
77518;SDS011;66629;47.346;19.038;2023-02-10T08:04:48;98.10;;;48.75;;
77518;SDS011;66629;47.346;19.038;2023-02-10T08:07:13;52.35;;;29.02;;
77518;SDS011;66629;47.346;19.038;2023-02-10T08:09:39;98.55;;;49.70;;
77518;SDS011;66629;47.346;19.038;2023-02-10T08:12:04;83.38;;;46.10;;
77518;SDS011;66629;47.346;19.038;2023-02-10T08:14:30;97.30;;;51.85;;
77518;SDS011;66629;47.346;19.038;2023-02-10T08:16:56;98.30;;;50.90;;
77518;SDS011;66629;47.346;19.038;2023-02-10T08:19:22;103.22;;;52.03;;
77518;SDS011;66629;47.346;19.038;2023-02-10T08:21:47;92.22;;;47.47;;
77518;SDS011;66629;47.346;19.038;2023-02-10T08:24:13;101.95;;;56.55;;
77518;SDS011;66629;47.346;19.038;2023-02-10T08:26:38;99.63;;;51.63;;
77518;SDS011;66629;47.346;19.038;2023-02-10T08:29:04;96.35;;;50.65;;
77518;SDS011;66629;47.346;19.038;2023-02-10T08:31:29;78.75;;;46.40;;
77518;SDS011;66629;47.346;19.038;2023-02-10T08:33:55;78.70;;;43.33;;
77518;SDS011;66629;47.346;19.038;2023-02-10T08:36:21;79.57;;;43.13;;
77518;SDS011;66629;47.346;19.038;2023-02-10T08:38:48;66.28;;;36.72;;
77518;SDS011;66629;47.346;19.038;2023-02-10T08:41:15;77.10;;;42.80;;
77518;SDS011;66629;47.346;19.038;2023-02-10T08:43:41;73.70;;;41.95;;
77518;SDS011;66629;47.346;19.038;2023-02-10T08:46:06;74.00;;;40.47;;
77518;SDS011;66629;47.346;19.038;2023-02-10T08:48:32;86.65;;;46.35;;
77518;SDS011;66629;47.346;19.038;2023-02-10T08:50:58;74.75;;;44.15;;
77518;SDS011;66629;47.346;19.038;2023-02-10T08:53:24;80.82;;;46.55;;
77518;SDS011;66629;47.346;19.038;2023-02-10T08:56:03;86.28;;;48.67;;
77518;SDS011;66629;47.346;19.038;2023-02-10T08:58:31;88.57;;;51.78;;
77518;SDS011;66629;47.346;19.038;2023-02-10T09:00:56;99.22;;;52.88;;
77518;SDS011;66629;47.346;19.038;2023-02-10T09:03:22;85.05;;;48.70;;
77518;SDS011;66629;47.346;19.038;2023-02-10T09:05:48;73.63;;;44.15;;
77518;SDS011;66629;47.346;19.038;2023-02-10T09:08:14;78.15;;;45.95;;
77518;SDS011;66629;47.346;19.038;2023-02-10T09:10:42;79.03;;;47.28;;
77518;SDS011;66629;47.346;19.038;2023-02-10T09:13:08;86.68;;;50.05;;
77518;SDS011;66629;47.346;19.038;2023-02-10T09:15:37;85.63;;;47.92;;
77518;SDS011;66629;47.346;19.038;2023-02-10T09:18:04;81.43;;;46.55;;
77518;SDS011;66629;47.346;19.038;2023-02-10T09:20:30;84.47;;;45.92;;
77518;SDS011;66629;47.346;19.038;2023-02-10T09:22:56;82.63;;;45.80;;
77518;SDS011;66629;47.346;19.038;2023-02-10T09:25:21;75.13;;;45.55;;
77518;SDS011;66629;47.346;19.038;2023-02-10T09:27:47;67.75;;;41.05;;
77518;SDS011;66629;47.346;19.038;2023-02-10T09:30:12;71.50;;;42.30;;
77518;SDS011;66629;47.346;19.038;2023-02-10T09:32:38;72.78;;;42.55;;
77518;SDS011;66629;47.346;19.038;2023-02-10T09:35:03;75.32;;;44.67;;
77518;SDS011;66629;47.346;19.038;2023-02-10T09:37:29;73.93;;;40.70;;
77518;SDS011;66629;47.346;19.038;2023-02-10T09:39:54;68.63;;;39.95;;
77518;SDS011;66629;47.346;19.038;2023-02-10T09:42:29;52.90;;;32.28;;
77518;SDS011;66629;47.346;19.038;2023-02-10T09:45:22;45.10;;;28.10;;
77518;SDS011;66629;47.346;19.038;2023-02-10T09:47:51;51.08;;;29.67;;
77518;SDS011;66629;47.346;19.038;2023-02-10T09:55:45;56.22;;;31.95;;
77518;SDS011;66629;47.346;19.038;2023-02-10T10:00:45;44.80;;;25.80;;
77518;SDS011;66629;47.346;19.038;2023-02-10T10:03:37;36.85;;;20.58;;
77518;SDS011;66629;47.346;19.038;2023-02-10T10:11:49;28.27;;;17.60;;
77518;SDS011;66629;47.346;19.038;2023-02-10T10:14:22;31.92;;;19.80;;
77518;SDS011;66629;47.346;19.038;2023-02-10T10:16:58;26.20;;;15.85;;
77518;SDS011;66629;47.346;19.038;2023-02-10T10:30:07;29.25;;;17.20;;
77518;SDS011;66629;47.346;19.038;2023-02-10T10:32:41;31.95;;;20.65;;
77518;SDS011;66629;47.346;19.038;2023-02-10T10:35:14;26.75;;;16.30;;
77518;SDS011;66629;47.346;19.038;2023-02-10T10:37:42;22.98;;;15.57;;
77518;SDS011;66629;47.346;19.038;2023-02-10T10:40:08;21.50;;;13.32;;
77518;SDS011;66629;47.346;19.038;2023-02-10T10:42:45;21.65;;;13.63;;
77518;SDS011;66629;47.346;19.038;2023-02-10T10:45:18;18.35;;;11.82;;
77518;SDS011;66629;47.346;19.038;2023-02-10T10:47:49;22.48;;;12.45;;
77518;SDS011;66629;47.346;19.038;2023-02-10T10:50:20;19.58;;;11.77;;
77518;SDS011;66629;47.346;19.038;2023-02-10T10:52:49;21.38;;;12.10;;
77518;SDS011;66629;47.346;19.038;2023-02-10T10:55:37;25.67;;;14.23;;
77518;SDS011;66629;47.346;19.038;2023-02-10T10:58:10;21.40;;;13.65;;
77518;SDS011;66629;47.346;19.038;2023-02-10T11:00:50;22.05;;;13.25;;
77518;SDS011;66629;47.346;19.038;2023-02-10T11:03:17;17.73;;;11.27;;
77518;SDS011;66629;47.346;19.038;2023-02-10T11:05:42;20.85;;;12.63;;
77518;SDS011;66629;47.346;19.038;2023-02-10T11:08:24;16.13;;;10.55;;
77518;SDS011;66629;47.346;19.038;2023-02-10T11:10:54;16.65;;;10.13;;
77518;SDS011;66629;47.346;19.038;2023-02-10T11:13:23;17.23;;;11.10;;
77518;SDS011;66629;47.346;19.038;2023-02-10T11:16:04;16.90;;;10.70;;
77518;SDS011;66629;47.346;19.038;2023-02-10T11:18:33;13.00;;;8.32;;
77518;SDS011;66629;47.346;19.038;2023-02-10T11:21:00;20.27;;;10.82;;
77518;SDS011;66629;47.346;19.038;2023-02-10T11:23:27;14.38;;;9.68;;
77518;SDS011;66629;47.346;19.038;2023-02-10T11:26:01;23.50;;;13.07;;
77518;SDS011;66629;47.346;19.038;2023-02-10T11:28:34;17.50;;;10.02;;
77518;SDS011;66629;47.346;19.038;2023-02-10T11:31:05;14.00;;;8.70;;
77518;SDS011;66629;47.346;19.038;2023-02-10T11:33:42;18.02;;;10.20;;
77518;SDS011;66629;47.346;19.038;2023-02-10T11:36:18;14.55;;;9.68;;
77518;SDS011;66629;47.346;19.038;2023-02-10T11:38:58;16.67;;;10.68;;
77518;SDS011;66629;47.346;19.038;2023-02-10T11:41:28;17.45;;;11.00;;
77518;SDS011;66629;47.346;19.038;2023-02-10T11:43:54;18.20;;;10.38;;
77518;SDS011;66629;47.346;19.038;2023-02-10T11:46:22;19.15;;;11.50;;
77518;SDS011;66629;47.346;19.038;2023-02-10T11:48:56;17.17;;;10.38;;
77518;SDS011;66629;47.346;19.038;2023-02-10T11:51:26;20.58;;;12.02;;
77518;SDS011;66629;47.346;19.038;2023-02-10T11:53:53;16.25;;;11.40;;
77518;SDS011;66629;47.346;19.038;2023-02-10T11:56:23;21.20;;;11.68;;
77518;SDS011;66629;47.346;19.038;2023-02-10T11:59:47;18.73;;;12.13;;
77518;SDS011;66629;47.346;19.038;2023-02-10T12:08:32;18.40;;;12.00;;
77518;SDS011;66629;47.346;19.038;2023-02-10T12:11:27;18.35;;;10.90;;
77518;SDS011;66629;47.346;19.038;2023-02-10T12:19:03;16.75;;;9.00;;
77518;SDS011;66629;47.346;19.038;2023-02-10T12:27:47;20.15;;;9.90;;
77518;SDS011;66629;47.346;19.038;2023-02-10T12:41:28;18.95;;;11.48;;
77518;SDS011;66629;47.346;19.038;2023-02-10T12:52:02;20.42;;;13.07;;
77518;SDS011;66629;47.346;19.038;2023-02-10T12:57:51;17.83;;;11.55;;
77518;SDS011;66629;47.346;19.038;2023-02-10T13:03:07;19.73;;;11.25;;
77518;SDS011;66629;47.346;19.038;2023-02-10T13:05:45;18.90;;;11.95;;
77518;SDS011;66629;47.346;19.038;2023-02-10T13:08:17;20.67;;;11.38;;
77518;SDS011;66629;47.346;19.038;2023-02-10T13:10:50;21.67;;;12.10;;
77518;SDS011;66629;47.346;19.038;2023-02-10T13:15:57;22.40;;;12.90;;
77518;SDS011;66629;47.346;19.038;2023-02-10T13:18:25;21.30;;;13.38;;
77518;SDS011;66629;47.346;19.038;2023-02-10T13:24:06;21.98;;;13.73;;
77518;SDS011;66629;47.346;19.038;2023-02-10T13:27:10;17.98;;;11.93;;
77518;SDS011;66629;47.346;19.038;2023-02-10T13:35:01;20.67;;;12.85;;
77518;SDS011;66629;47.346;19.038;2023-02-10T13:37:36;24.10;;;11.90;;
77518;SDS011;66629;47.346;19.038;2023-02-10T13:40:10;20.77;;;13.13;;
77518;SDS011;66629;47.346;19.038;2023-02-10T13:45:19;20.63;;;12.48;;
77518;SDS011;66629;47.346;19.038;2023-02-10T13:50:28;19.40;;;10.80;;
77518;SDS011;66629;47.346;19.038;2023-02-10T13:53:00;16.88;;;11.40;;
77518;SDS011;66629;47.346;19.038;2023-02-10T14:00:46;19.13;;;11.15;;
77518;SDS011;66629;47.346;19.038;2023-02-10T14:08:29;19.60;;;9.85;;
77518;SDS011;66629;47.346;19.038;2023-02-10T14:10:58;19.40;;;11.88;;
77518;SDS011;66629;47.346;19.038;2023-02-10T14:13:29;22.92;;;12.05;;
77518;SDS011;66629;47.346;19.038;2023-02-10T14:16:06;22.48;;;12.38;;
77518;SDS011;66629;47.346;19.038;2023-02-10T14:21:23;21.58;;;12.43;;
77518;SDS011;66629;47.346;19.038;2023-02-10T14:23:50;20.50;;;12.18;;
77518;SDS011;66629;47.346;19.038;2023-02-10T14:26:19;19.52;;;11.38;;
77518;SDS011;66629;47.346;19.038;2023-02-10T14:28:50;18.42;;;11.98;;
77518;SDS011;66629;47.346;19.038;2023-02-10T14:31:20;22.65;;;13.90;;
77518;SDS011;66629;47.346;19.038;2023-02-10T14:33:56;20.88;;;13.50;;
77518;SDS011;66629;47.346;19.038;2023-02-10T14:36:22;18.95;;;11.73;;
77518;SDS011;66629;47.346;19.038;2023-02-10T14:38:55;20.75;;;12.13;;
77518;SDS011;66629;47.346;19.038;2023-02-10T14:41:22;19.70;;;12.40;;
77518;SDS011;66629;47.346;19.038;2023-02-10T14:43:49;16.88;;;11.07;;
77518;SDS011;66629;47.346;19.038;2023-02-10T14:46:20;19.48;;;12.15;;
77518;SDS011;66629;47.346;19.038;2023-02-10T14:49:03;20.10;;;12.38;;
77518;SDS011;66629;47.346;19.038;2023-02-10T14:51:38;24.13;;;14.30;;
77518;SDS011;66629;47.346;19.038;2023-02-10T14:54:15;21.48;;;12.77;;
77518;SDS011;66629;47.346;19.038;2023-02-10T14:59:23;18.98;;;11.55;;
77518;SDS011;66629;47.346;19.038;2023-02-10T15:01:52;20.23;;;12.73;;
77518;SDS011;66629;47.346;19.038;2023-02-10T15:04:19;20.13;;;12.45;;
77518;SDS011;66629;47.346;19.038;2023-02-10T15:06:50;20.65;;;11.63;;
77518;SDS011;66629;47.346;19.038;2023-02-10T15:09:19;18.63;;;11.45;;
77518;SDS011;66629;47.346;19.038;2023-02-10T15:11:55;16.58;;;12.05;;
77518;SDS011;66629;47.346;19.038;2023-02-10T15:15:04;21.95;;;12.63;;
77518;SDS011;66629;47.346;19.038;2023-02-10T15:17:42;22.05;;;12.77;;
77518;SDS011;66629;47.346;19.038;2023-02-10T15:22:40;21.17;;;12.80;;
77518;SDS011;66629;47.346;19.038;2023-02-10T15:27:55;20.27;;;12.02;;
77518;SDS011;66629;47.346;19.038;2023-02-10T15:30:25;22.90;;;12.70;;
77518;SDS011;66629;47.346;19.038;2023-02-10T15:32:52;20.25;;;12.80;;
77518;SDS011;66629;47.346;19.038;2023-02-10T15:35:23;23.77;;;13.57;;
77518;SDS011;66629;47.346;19.038;2023-02-10T15:37:50;23.17;;;13.27;;
77518;SDS011;66629;47.346;19.038;2023-02-10T15:40:22;22.08;;;13.15;;
77518;SDS011;66629;47.346;19.038;2023-02-10T15:45:29;27.25;;;14.93;;
77518;SDS011;66629;47.346;19.038;2023-02-10T15:48:04;29.20;;;16.08;;
77518;SDS011;66629;47.346;19.038;2023-02-10T15:50:31;24.45;;;15.27;;
77518;SDS011;66629;47.346;19.038;2023-02-10T15:52:59;29.10;;;15.90;;
77518;SDS011;66629;47.346;19.038;2023-02-10T15:55:29;28.27;;;16.63;;
77518;SDS011;66629;47.346;19.038;2023-02-10T15:57:58;37.78;;;16.38;;
77518;SDS011;66629;47.346;19.038;2023-02-10T16:00:25;28.20;;;17.02;;
77518;SDS011;66629;47.346;19.038;2023-02-10T16:02:52;31.63;;;16.55;;
77518;SDS011;66629;47.346;19.038;2023-02-10T16:05:18;35.17;;;16.67;;
77518;SDS011;66629;47.346;19.038;2023-02-10T16:07:43;26.33;;;15.52;;
77518;SDS011;66629;47.346;19.038;2023-02-10T16:10:16;28.42;;;16.05;;
77518;SDS011;66629;47.346;19.038;2023-02-10T16:12:44;25.10;;;16.05;;
77518;SDS011;66629;47.346;19.038;2023-02-10T16:15:17;27.65;;;16.00;;
77518;SDS011;66629;47.346;19.038;2023-02-10T16:17:46;32.85;;;17.45;;
77518;SDS011;66629;47.346;19.038;2023-02-10T16:20:22;28.75;;;16.40;;